sensor_id;sensor_type;location;lat;lon;timestamp;temperature;humidity
57088;DHT22;42965;52.846;6.614;2023-05-16T00:00:59;9.30;99.90
57088;DHT22;42965;52.846;6.614;2023-05-16T00:03:26;9.20;99.90
57088;DHT22;42965;52.846;6.614;2023-05-16T00:05:52;9.20;99.90
57088;DHT22;42965;52.846;6.614;2023-05-16T00:08:19;9.10;99.90
57088;DHT22;42965;52.846;6.614;2023-05-16T00:10:45;9.10;99.90
57088;DHT22;42965;52.846;6.614;2023-05-16T00:13:11;9.10;99.90
57088;DHT22;42965;52.846;6.614;2023-05-16T00:15:38;9.10;99.90
57088;DHT22;42965;52.846;6.614;2023-05-16T00:18:04;9.00;99.90
57088;DHT22;42965;52.846;6.614;2023-05-16T00:20:31;9.00;99.90
57088;DHT22;42965;52.846;6.614;2023-05-16T00:22:57;9.00;99.90
57088;DHT22;42965;52.846;6.614;2023-05-16T00:25:26;9.00;99.90
57088;DHT22;42965;52.846;6.614;2023-05-16T00:27:53;8.90;99.90
57088;DHT22;42965;52.846;6.614;2023-05-16T00:30:20;8.90;99.90
57088;DHT22;42965;52.846;6.614;2023-05-16T00:32:47;8.90;99.90
57088;DHT22;42965;52.846;6.614;2023-05-16T00:35:13;8.90;99.90
57088;DHT22;42965;52.846;6.614;2023-05-16T00:37:42;8.80;99.90
57088;DHT22;42965;52.846;6.614;2023-05-16T00:40:09;8.70;99.90
57088;DHT22;42965;52.846;6.614;2023-05-16T00:42:35;8.70;99.90
57088;DHT22;42965;52.846;6.614;2023-05-16T00:45:04;8.70;99.90
57088;DHT22;42965;52.846;6.614;2023-05-16T00:47:30;8.70;99.90
57088;DHT22;42965;52.846;6.614;2023-05-16T00:49:57;8.60;99.90
57088;DHT22;42965;52.846;6.614;2023-05-16T00:52:23;8.60;99.90
57088;DHT22;42965;52.846;6.614;2023-05-16T00:54:50;8.50;99.90
57088;DHT22;42965;52.846;6.614;2023-05-16T00:57:17;8.50;99.90
57088;DHT22;42965;52.846;6.614;2023-05-16T00:59:45;8.40;99.90
57088;DHT22;42965;52.846;6.614;2023-05-16T01:02:12;8.40;99.90
57088;DHT22;42965;52.846;6.614;2023-05-16T01:04:39;8.40;99.90
57088;DHT22;42965;52.846;6.614;2023-05-16T01:07:05;8.40;99.90
57088;DHT22;42965;52.846;6.614;2023-05-16T01:09:34;8.30;99.90
57088;DHT22;42965;52.846;6.614;2023-05-16T01:12:15;8.30;99.90
57088;DHT22;42965;52.846;6.614;2023-05-16T01:25:30;8.10;99.90
57088;DHT22;42965;52.846;6.614;2023-05-16T01:27:58;8.00;99.90
57088;DHT22;42965;52.846;6.614;2023-05-16T01:30:31;8.00;99.90
57088;DHT22;42965;52.846;6.614;2023-05-16T01:32:57;8.00;99.90
57088;DHT22;42965;52.846;6.614;2023-05-16T01:35:24;8.00;99.90
57088;DHT22;42965;52.846;6.614;2023-05-16T01:38:15;7.90;99.90
57088;DHT22;42965;52.846;6.614;2023-05-16T01:40:54;7.90;99.90
57088;DHT22;42965;52.846;6.614;2023-05-16T01:43:32;7.90;99.90
57088;DHT22;42965;52.846;6.614;2023-05-16T01:46:13;7.90;99.90
57088;DHT22;42965;52.846;6.614;2023-05-16T01:48:57;7.80;99.90
57088;DHT22;42965;52.846;6.614;2023-05-16T01:51:29;7.80;99.90
57088;DHT22;42965;52.846;6.614;2023-05-16T01:54:04;7.80;99.90
57088;DHT22;42965;52.846;6.614;2023-05-16T01:56:32;7.70;99.90
57088;DHT22;42965;52.846;6.614;2023-05-16T01:58:59;7.70;99.90
57088;DHT22;42965;52.846;6.614;2023-05-16T02:01:29;7.70;99.90
57088;DHT22;42965;52.846;6.614;2023-05-16T02:03:57;7.60;99.90
57088;DHT22;42965;52.846;6.614;2023-05-16T02:06:24;7.60;99.90
57088;DHT22;42965;52.846;6.614;2023-05-16T02:08:51;7.60;99.90
57088;DHT22;42965;52.846;6.614;2023-05-16T02:11:17;7.60;99.90
57088;DHT22;42965;52.846;6.614;2023-05-16T02:13:43;7.50;99.90
57088;DHT22;42965;52.846;6.614;2023-05-16T02:16:10;7.50;99.90
57088;DHT22;42965;52.846;6.614;2023-05-16T02:18:38;7.40;99.90
57088;DHT22;42965;52.846;6.614;2023-05-16T02:21:04;7.40;99.90
57088;DHT22;42965;52.846;6.614;2023-05-16T02:23:30;7.40;99.90
57088;DHT22;42965;52.846;6.614;2023-05-16T02:25:57;7.40;99.90
57088;DHT22;42965;52.846;6.614;2023-05-16T02:28:23;7.40;99.90
57088;DHT22;42965;52.846;6.614;2023-05-16T02:30:57;7.40;99.90
57088;DHT22;42965;52.846;6.614;2023-05-16T02:33:25;7.30;99.90
57088;DHT22;42965;52.846;6.614;2023-05-16T02:35:52;7.30;99.90
57088;DHT22;42965;52.846;6.614;2023-05-16T02:38:19;7.40;99.90
57088;DHT22;42965;52.846;6.614;2023-05-16T02:40:47;7.40;99.90
57088;DHT22;42965;52.846;6.614;2023-05-16T02:43:14;7.50;99.90
57088;DHT22;42965;52.846;6.614;2023-05-16T02:45:41;7.60;99.90
57088;DHT22;42965;52.846;6.614;2023-05-16T02:48:08;7.60;99.90
57088;DHT22;42965;52.846;6.614;2023-05-16T02:50:35;7.70;99.90
57088;DHT22;42965;52.846;6.614;2023-05-16T02:53:02;7.70;99.90
57088;DHT22;42965;52.846;6.614;2023-05-16T02:55:28;7.70;99.90
57088;DHT22;42965;52.846;6.614;2023-05-16T02:57:56;7.70;99.90
57088;DHT22;42965;52.846;6.614;2023-05-16T03:00:23;7.70;99.90
57088;DHT22;42965;52.846;6.614;2023-05-16T03:02:49;7.60;99.90
57088;DHT22;42965;52.846;6.614;2023-05-16T03:05:16;7.60;99.90
57088;DHT22;42965;52.846;6.614;2023-05-16T03:07:42;7.50;99.90
57088;DHT22;42965;52.846;6.614;2023-05-16T03:10:08;7.50;99.90
57088;DHT22;42965;52.846;6.614;2023-05-16T03:12:35;7.40;99.90
57088;DHT22;42965;52.846;6.614;2023-05-16T03:15:01;7.30;99.90
57088;DHT22;42965;52.846;6.614;2023-05-16T03:17:28;7.30;99.90
57088;DHT22;42965;52.846;6.614;2023-05-16T03:19:54;7.20;99.90
57088;DHT22;42965;52.846;6.614;2023-05-16T03:22:21;7.10;99.90
57088;DHT22;42965;52.846;6.614;2023-05-16T03:24:47;7.20;99.90
57088;DHT22;42965;52.846;6.614;2023-05-16T03:27:13;7.10;99.90
57088;DHT22;42965;52.846;6.614;2023-05-16T03:29:39;7.10;99.90
57088;DHT22;42965;52.846;6.614;2023-05-16T03:32:05;7.10;99.90
57088;DHT22;42965;52.846;6.614;2023-05-16T03:34:32;7.00;99.90
57088;DHT22;42965;52.846;6.614;2023-05-16T03:36:58;6.90;99.90
57088;DHT22;42965;52.846;6.614;2023-05-16T03:39:25;7.00;99.90
57088;DHT22;42965;52.846;6.614;2023-05-16T03:41:51;6.90;99.90
57088;DHT22;42965;52.846;6.614;2023-05-16T03:44:21;6.90;99.90
57088;DHT22;42965;52.846;6.614;2023-05-16T03:46:47;6.90;99.90
57088;DHT22;42965;52.846;6.614;2023-05-16T03:49:13;6.90;99.90
57088;DHT22;42965;52.846;6.614;2023-05-16T03:51:39;6.90;99.90
57088;DHT22;42965;52.846;6.614;2023-05-16T03:54:05;6.90;99.90
57088;DHT22;42965;52.846;6.614;2023-05-16T03:56:31;6.90;99.90
57088;DHT22;42965;52.846;6.614;2023-05-16T03:58:58;6.80;99.90
57088;DHT22;42965;52.846;6.614;2023-05-16T04:01:24;6.80;99.90
57088;DHT22;42965;52.846;6.614;2023-05-16T04:03:50;6.80;99.90
57088;DHT22;42965;52.846;6.614;2023-05-16T04:06:16;6.80;99.90
57088;DHT22;42965;52.846;6.614;2023-05-16T04:08:43;6.80;99.90
57088;DHT22;42965;52.846;6.614;2023-05-16T04:11:09;6.80;99.90
57088;DHT22;42965;52.846;6.614;2023-05-16T04:13:36;6.80;99.90
57088;DHT22;42965;52.846;6.614;2023-05-16T04:16:02;6.80;99.90
57088;DHT22;42965;52.846;6.614;2023-05-16T04:18:28;6.80;99.90
57088;DHT22;42965;52.846;6.614;2023-05-16T04:20:54;6.90;99.90
57088;DHT22;42965;52.846;6.614;2023-05-16T04:23:23;6.90;99.90
57088;DHT22;42965;52.846;6.614;2023-05-16T04:25:49;6.90;99.90
57088;DHT22;42965;52.846;6.614;2023-05-16T04:28:15;6.90;99.90
57088;DHT22;42965;52.846;6.614;2023-05-16T04:30:41;7.00;99.90
57088;DHT22;42965;52.846;6.614;2023-05-16T04:33:08;7.00;99.90
57088;DHT22;42965;52.846;6.614;2023-05-16T04:35:34;7.10;99.90
57088;DHT22;42965;52.846;6.614;2023-05-16T04:38:02;7.10;99.90
57088;DHT22;42965;52.846;6.614;2023-05-16T04:40:30;7.20;99.90
57088;DHT22;42965;52.846;6.614;2023-05-16T04:42:56;7.30;99.90
57088;DHT22;42965;52.846;6.614;2023-05-16T04:45:23;7.30;99.90
57088;DHT22;42965;52.846;6.614;2023-05-16T04:47:49;7.40;99.90
57088;DHT22;42965;52.846;6.614;2023-05-16T04:50:16;7.40;99.90
57088;DHT22;42965;52.846;6.614;2023-05-16T04:52:43;7.50;99.90
57088;DHT22;42965;52.846;6.614;2023-05-16T04:55:12;7.50;99.90
57088;DHT22;42965;52.846;6.614;2023-05-16T04:57:38;7.60;99.90
57088;DHT22;42965;52.846;6.614;2023-05-16T05:00:07;7.70;99.90
57088;DHT22;42965;52.846;6.614;2023-05-16T05:02:39;7.80;99.90
57088;DHT22;42965;52.846;6.614;2023-05-16T05:05:07;8.00;99.90
57088;DHT22;42965;52.846;6.614;2023-05-16T05:07:33;8.20;99.90
57088;DHT22;42965;52.846;6.614;2023-05-16T05:09:59;8.50;99.90
57088;DHT22;42965;52.846;6.614;2023-05-16T05:12:26;8.60;99.90
57088;DHT22;42965;52.846;6.614;2023-05-16T05:14:53;8.80;99.90
57088;DHT22;42965;52.846;6.614;2023-05-16T05:17:20;9.00;99.90
57088;DHT22;42965;52.846;6.614;2023-05-16T05:19:46;9.10;99.90
57088;DHT22;42965;52.846;6.614;2023-05-16T05:22:16;9.30;99.90
57088;DHT22;42965;52.846;6.614;2023-05-16T05:24:42;9.50;99.90
57088;DHT22;42965;52.846;6.614;2023-05-16T05:27:09;9.80;99.90
57088;DHT22;42965;52.846;6.614;2023-05-16T05:29:35;9.90;99.90
57088;DHT22;42965;52.846;6.614;2023-05-16T05:32:01;10.00;99.90
57088;DHT22;42965;52.846;6.614;2023-05-16T05:34:27;10.20;99.90
57088;DHT22;42965;52.846;6.614;2023-05-16T05:36:53;10.40;99.90
57088;DHT22;42965;52.846;6.614;2023-05-16T05:39:20;10.50;99.90
57088;DHT22;42965;52.846;6.614;2023-05-16T05:41:47;10.70;99.90
57088;DHT22;42965;52.846;6.614;2023-05-16T05:44:13;10.80;99.90
57088;DHT22;42965;52.846;6.614;2023-05-16T05:46:43;11.00;99.90
57088;DHT22;42965;52.846;6.614;2023-05-16T05:49:09;11.20;99.90
57088;DHT22;42965;52.846;6.614;2023-05-16T05:51:35;11.40;99.90
57088;DHT22;42965;52.846;6.614;2023-05-16T05:54:02;11.60;99.90
57088;DHT22;42965;52.846;6.614;2023-05-16T05:56:28;11.60;99.90
57088;DHT22;42965;52.846;6.614;2023-05-16T05:58:55;11.70;99.90
57088;DHT22;42965;52.846;6.614;2023-05-16T06:01:21;11.70;99.90
57088;DHT22;42965;52.846;6.614;2023-05-16T06:03:48;11.90;99.90
57088;DHT22;42965;52.846;6.614;2023-05-16T06:06:15;12.10;99.90
57088;DHT22;42965;52.846;6.614;2023-05-16T06:08:41;12.30;99.90
57088;DHT22;42965;52.846;6.614;2023-05-16T06:11:07;12.40;99.90
57088;DHT22;42965;52.846;6.614;2023-05-16T06:13:34;12.50;99.90
57088;DHT22;42965;52.846;6.614;2023-05-16T06:16:00;12.50;99.90
57088;DHT22;42965;52.846;6.614;2023-05-16T06:18:26;12.40;99.90
57088;DHT22;42965;52.846;6.614;2023-05-16T06:20:52;12.70;99.90
57088;DHT22;42965;52.846;6.614;2023-05-16T06:23:19;12.50;99.90
57088;DHT22;42965;52.846;6.614;2023-05-16T06:25:47;12.60;99.90
57088;DHT22;42965;52.846;6.614;2023-05-16T06:28:13;12.70;99.90
57088;DHT22;42965;52.846;6.614;2023-05-16T06:30:39;12.90;99.90
57088;DHT22;42965;52.846;6.614;2023-05-16T06:33:05;12.90;99.90
57088;DHT22;42965;52.846;6.614;2023-05-16T06:35:32;13.10;99.90
57088;DHT22;42965;52.846;6.614;2023-05-16T06:37:58;13.00;99.90
57088;DHT22;42965;52.846;6.614;2023-05-16T06:40:25;13.10;99.90
57088;DHT22;42965;52.846;6.614;2023-05-16T06:42:52;13.20;99.90
57088;DHT22;42965;52.846;6.614;2023-05-16T06:45:18;13.10;99.90
57088;DHT22;42965;52.846;6.614;2023-05-16T06:47:44;13.10;99.90
57088;DHT22;42965;52.846;6.614;2023-05-16T06:50:11;13.20;99.90
57088;DHT22;42965;52.846;6.614;2023-05-16T06:52:37;12.90;99.90
57088;DHT22;42965;52.846;6.614;2023-05-16T06:55:03;12.60;99.90
57088;DHT22;42965;52.846;6.614;2023-05-16T06:57:29;12.50;99.90
57088;DHT22;42965;52.846;6.614;2023-05-16T06:59:56;12.50;99.90
57088;DHT22;42965;52.846;6.614;2023-05-16T07:02:22;12.20;99.90
57088;DHT22;42965;52.846;6.614;2023-05-16T07:04:48;11.70;99.90
57088;DHT22;42965;52.846;6.614;2023-05-16T07:07:14;11.60;99.90
57088;DHT22;42965;52.846;6.614;2023-05-16T07:09:41;11.40;99.90
57088;DHT22;42965;52.846;6.614;2023-05-16T07:12:07;11.30;99.90
57088;DHT22;42965;52.846;6.614;2023-05-16T07:14:34;11.10;99.90
57088;DHT22;42965;52.846;6.614;2023-05-16T07:17:00;11.00;99.90
57088;DHT22;42965;52.846;6.614;2023-05-16T07:19:26;11.30;99.90
57088;DHT22;42965;52.846;6.614;2023-05-16T07:21:53;11.70;99.90
57088;DHT22;42965;52.846;6.614;2023-05-16T07:24:19;12.20;99.90
57088;DHT22;42965;52.846;6.614;2023-05-16T07:26:45;12.70;99.90
57088;DHT22;42965;52.846;6.614;2023-05-16T07:29:14;13.10;99.90
57088;DHT22;42965;52.846;6.614;2023-05-16T07:31:40;13.30;99.90
57088;DHT22;42965;52.846;6.614;2023-05-16T07:34:06;13.70;99.90
57088;DHT22;42965;52.846;6.614;2023-05-16T07:36:33;14.10;99.90
57088;DHT22;42965;52.846;6.614;2023-05-16T07:38:59;13.90;99.90
57088;DHT22;42965;52.846;6.614;2023-05-16T07:41:26;14.30;99.90
57088;DHT22;42965;52.846;6.614;2023-05-16T07:43:53;14.50;99.90
57088;DHT22;42965;52.846;6.614;2023-05-16T07:46:19;14.60;99.90
57088;DHT22;42965;52.846;6.614;2023-05-16T07:48:46;14.80;99.90
57088;DHT22;42965;52.846;6.614;2023-05-16T07:51:13;14.90;99.90
57088;DHT22;42965;52.846;6.614;2023-05-16T07:53:39;15.10;99.90
57088;DHT22;42965;52.846;6.614;2023-05-16T07:56:06;15.30;99.90
57088;DHT22;42965;52.846;6.614;2023-05-16T07:58:36;15.50;99.90
57088;DHT22;42965;52.846;6.614;2023-05-16T08:01:03;15.70;99.90
57088;DHT22;42965;52.846;6.614;2023-05-16T08:03:29;15.70;99.90
57088;DHT22;42965;52.846;6.614;2023-05-16T08:05:56;15.70;99.90
57088;DHT22;42965;52.846;6.614;2023-05-16T08:08:22;15.70;99.90
57088;DHT22;42965;52.846;6.614;2023-05-16T08:10:48;15.90;99.90
57088;DHT22;42965;52.846;6.614;2023-05-16T08:13:14;16.40;92.80
57088;DHT22;42965;52.846;6.614;2023-05-16T08:15:43;15.80;97.20
57088;DHT22;42965;52.846;6.614;2023-05-16T08:18:13;16.40;97.00
57088;DHT22;42965;52.846;6.614;2023-05-16T08:20:41;16.90;95.90
57088;DHT22;42965;52.846;6.614;2023-05-16T08:23:07;17.10;78.40
57088;DHT22;42965;52.846;6.614;2023-05-16T08:25:34;16.70;90.40
57088;DHT22;42965;52.846;6.614;2023-05-16T08:28:01;16.20;87.40
57088;DHT22;42965;52.846;6.614;2023-05-16T08:30:27;15.20;83.60
57088;DHT22;42965;52.846;6.614;2023-05-16T08:32:54;14.80;94.50
57088;DHT22;42965;52.846;6.614;2023-05-16T08:35:20;15.00;98.40
57088;DHT22;42965;52.846;6.614;2023-05-16T08:37:47;15.60;99.90
57088;DHT22;42965;52.846;6.614;2023-05-16T08:40:13;16.10;99.90
57088;DHT22;42965;52.846;6.614;2023-05-16T08:42:40;16.20;98.40
57088;DHT22;42965;52.846;6.614;2023-05-16T08:45:08;16.00;97.20
57088;DHT22;42965;52.846;6.614;2023-05-16T08:47:35;16.10;96.50
57088;DHT22;42965;52.846;6.614;2023-05-16T08:50:08;16.00;94.40
57088;DHT22;42965;52.846;6.614;2023-05-16T08:52:37;15.40;97.90
57088;DHT22;42965;52.846;6.614;2023-05-16T08:55:04;14.70;95.20
57088;DHT22;42965;52.846;6.614;2023-05-16T08:57:31;15.80;96.70
57088;DHT22;42965;52.846;6.614;2023-05-16T08:59:59;16.40;94.50
57088;DHT22;42965;52.846;6.614;2023-05-16T09:02:26;16.90;76.30
57088;DHT22;42965;52.846;6.614;2023-05-16T09:04:55;16.10;74.20
57088;DHT22;42965;52.846;6.614;2023-05-16T09:07:22;16.00;70.00
57088;DHT22;42965;52.846;6.614;2023-05-16T09:09:48;15.40;74.70
57088;DHT22;42965;52.846;6.614;2023-05-16T09:12:15;16.00;78.00
57088;DHT22;42965;52.846;6.614;2023-05-16T09:14:41;15.70;71.50
57088;DHT22;42965;52.846;6.614;2023-05-16T09:17:08;15.50;70.80
57088;DHT22;42965;52.846;6.614;2023-05-16T09:19:42;15.20;72.30
57088;DHT22;42965;52.846;6.614;2023-05-16T09:22:12;14.70;84.90
57088;DHT22;42965;52.846;6.614;2023-05-16T09:24:43;14.90;79.30
57088;DHT22;42965;52.846;6.614;2023-05-16T09:27:10;15.40;77.80
57088;DHT22;42965;52.846;6.614;2023-05-16T09:29:39;15.80;75.10
57088;DHT22;42965;52.846;6.614;2023-05-16T09:32:11;16.70;75.20
57088;DHT22;42965;52.846;6.614;2023-05-16T09:34:46;17.30;64.50
57088;DHT22;42965;52.846;6.614;2023-05-16T09:37:14;17.00;66.30
57088;DHT22;42965;52.846;6.614;2023-05-16T09:39:49;17.60;66.40
57088;DHT22;42965;52.846;6.614;2023-05-16T09:42:19;17.60;64.30
57088;DHT22;42965;52.846;6.614;2023-05-16T09:44:52;18.00;64.80
57088;DHT22;42965;52.846;6.614;2023-05-16T09:47:22;17.80;61.20
57088;DHT22;42965;52.846;6.614;2023-05-16T09:49:52;18.00;60.70
57088;DHT22;42965;52.846;6.614;2023-05-16T09:52:19;17.70;61.30
57088;DHT22;42965;52.846;6.614;2023-05-16T09:54:46;18.50;64.40
57088;DHT22;42965;52.846;6.614;2023-05-16T09:57:19;18.20;59.00
57088;DHT22;42965;52.846;6.614;2023-05-16T09:59:47;17.60;60.00
57088;DHT22;42965;52.846;6.614;2023-05-16T10:02:13;17.40;60.00
57088;DHT22;42965;52.846;6.614;2023-05-16T10:04:40;16.90;59.90
57088;DHT22;42965;52.846;6.614;2023-05-16T10:07:06;17.70;59.90
57088;DHT22;42965;52.846;6.614;2023-05-16T10:09:38;17.70;58.90
57088;DHT22;42965;52.846;6.614;2023-05-16T10:12:07;17.20;58.40
57088;DHT22;42965;52.846;6.614;2023-05-16T10:14:35;17.40;58.30
57088;DHT22;42965;52.846;6.614;2023-05-16T10:17:09;17.30;57.60
57088;DHT22;42965;52.846;6.614;2023-05-16T10:19:40;17.80;58.60
57088;DHT22;42965;52.846;6.614;2023-05-16T10:22:07;18.00;59.40
57088;DHT22;42965;52.846;6.614;2023-05-16T10:24:52;18.50;57.90
57088;DHT22;42965;52.846;6.614;2023-05-16T10:27:21;18.40;55.60
57088;DHT22;42965;52.846;6.614;2023-05-16T10:29:48;18.70;55.20
57088;DHT22;42965;52.846;6.614;2023-05-16T10:32:15;18.80;54.50
57088;DHT22;42965;52.846;6.614;2023-05-16T10:34:41;19.60;54.30
57088;DHT22;42965;52.846;6.614;2023-05-16T10:37:08;18.90;52.70
57088;DHT22;42965;52.846;6.614;2023-05-16T10:39:35;19.00;53.30
57088;DHT22;42965;52.846;6.614;2023-05-16T10:42:01;19.10;53.40
57088;DHT22;42965;52.846;6.614;2023-05-16T10:44:31;19.30;53.00
57088;DHT22;42965;52.846;6.614;2023-05-16T10:46:59;19.40;53.80
57088;DHT22;42965;52.846;6.614;2023-05-16T10:49:27;18.60;52.00
57088;DHT22;42965;52.846;6.614;2023-05-16T10:52:07;17.90;52.40
57088;DHT22;42965;52.846;6.614;2023-05-16T10:54:41;18.40;51.90
57088;DHT22;42965;52.846;6.614;2023-05-16T10:57:15;18.80;53.40
57088;DHT22;42965;52.846;6.614;2023-05-16T10:59:49;18.90;52.00
57088;DHT22;42965;52.846;6.614;2023-05-16T11:02:27;18.50;52.60
57088;DHT22;42965;52.846;6.614;2023-05-16T11:04:57;18.10;53.40
57088;DHT22;42965;52.846;6.614;2023-05-16T11:07:30;18.40;54.10
57088;DHT22;42965;52.846;6.614;2023-05-16T11:10:08;17.70;53.10
57088;DHT22;42965;52.846;6.614;2023-05-16T11:12:43;17.20;53.80
57088;DHT22;42965;52.846;6.614;2023-05-16T11:15:25;16.90;54.70
57088;DHT22;42965;52.846;6.614;2023-05-16T11:18:08;18.10;56.00
57088;DHT22;42965;52.846;6.614;2023-05-16T11:20:37;19.00;54.80
57088;DHT22;42965;52.846;6.614;2023-05-16T11:25:44;19.00;55.00
57088;DHT22;42965;52.846;6.614;2023-05-16T11:28:14;19.00;54.70
57088;DHT22;42965;52.846;6.614;2023-05-16T11:30:45;19.00;55.00
57088;DHT22;42965;52.846;6.614;2023-05-16T11:33:12;19.10;54.50
57088;DHT22;42965;52.846;6.614;2023-05-16T11:35:38;18.90;54.60
57088;DHT22;42965;52.846;6.614;2023-05-16T11:38:04;19.10;53.90
57088;DHT22;42965;52.846;6.614;2023-05-16T11:40:30;20.00;54.20
57088;DHT22;42965;52.846;6.614;2023-05-16T11:42:59;18.90;53.20
57088;DHT22;42965;52.846;6.614;2023-05-16T11:45:29;18.70;52.80
57088;DHT22;42965;52.846;6.614;2023-05-16T11:48:01;18.70;53.90
57088;DHT22;42965;52.846;6.614;2023-05-16T11:50:29;18.90;53.00
57088;DHT22;42965;52.846;6.614;2023-05-16T11:52:56;17.80;52.50
57088;DHT22;42965;52.846;6.614;2023-05-16T11:55:28;17.60;53.10
57088;DHT22;42965;52.846;6.614;2023-05-16T11:57:57;17.50;54.10
57088;DHT22;42965;52.846;6.614;2023-05-16T12:00:24;16.90;55.10
57088;DHT22;42965;52.846;6.614;2023-05-16T12:02:53;16.90;56.60
57088;DHT22;42965;52.846;6.614;2023-05-16T12:05:21;16.80;56.70
57088;DHT22;42965;52.846;6.614;2023-05-16T12:07:51;15.70;60.40
57088;DHT22;42965;52.846;6.614;2023-05-16T12:10:21;14.80;99.90
57088;DHT22;42965;52.846;6.614;2023-05-16T12:12:49;14.40;99.90
57088;DHT22;42965;52.846;6.614;2023-05-16T12:15:17;14.00;99.90
57088;DHT22;42965;52.846;6.614;2023-05-16T12:17:45;13.80;99.90
57088;DHT22;42965;52.846;6.614;2023-05-16T12:20:12;13.90;99.90
57088;DHT22;42965;52.846;6.614;2023-05-16T12:22:43;14.20;99.90
57088;DHT22;42965;52.846;6.614;2023-05-16T12:25:23;15.00;99.90
57088;DHT22;42965;52.846;6.614;2023-05-16T12:27:52;15.80;99.90
57088;DHT22;42965;52.846;6.614;2023-05-16T12:30:21;16.80;99.90
57088;DHT22;42965;52.846;6.614;2023-05-16T12:32:54;16.70;99.90
57088;DHT22;42965;52.846;6.614;2023-05-16T12:35:21;16.40;99.90
57088;DHT22;42965;52.846;6.614;2023-05-16T12:37:48;16.40;99.90
57088;DHT22;42965;52.846;6.614;2023-05-16T12:40:16;17.20;99.90
57088;DHT22;42965;52.846;6.614;2023-05-16T12:42:43;17.90;99.90
57088;DHT22;42965;52.846;6.614;2023-05-16T12:45:16;17.80;79.40
57088;DHT22;42965;52.846;6.614;2023-05-16T12:47:43;17.50;82.10
57088;DHT22;42965;52.846;6.614;2023-05-16T12:50:10;17.00;99.20
57088;DHT22;42965;52.846;6.614;2023-05-16T12:52:50;16.90;97.60
57088;DHT22;42965;52.846;6.614;2023-05-16T12:55:18;16.60;98.10
57088;DHT22;42965;52.846;6.614;2023-05-16T12:57:46;16.70;97.20
57088;DHT22;42965;52.846;6.614;2023-05-16T13:00:14;16.90;96.20
57088;DHT22;42965;52.846;6.614;2023-05-16T13:02:40;16.80;91.30
57088;DHT22;42965;52.846;6.614;2023-05-16T13:05:07;16.70;84.70
57088;DHT22;42965;52.846;6.614;2023-05-16T13:07:34;16.30;81.30
57088;DHT22;42965;52.846;6.614;2023-05-16T13:10:00;15.80;75.90
57088;DHT22;42965;52.846;6.614;2023-05-16T13:12:28;15.80;87.10
57088;DHT22;42965;52.846;6.614;2023-05-16T13:14:54;15.90;84.70
57088;DHT22;42965;52.846;6.614;2023-05-16T13:17:20;16.40;78.50
57088;DHT22;42965;52.846;6.614;2023-05-16T13:19:49;16.70;72.60
57088;DHT22;42965;52.846;6.614;2023-05-16T13:22:15;16.50;66.80
57088;DHT22;42965;52.846;6.614;2023-05-16T13:24:41;15.80;66.60
57088;DHT22;42965;52.846;6.614;2023-05-16T13:27:07;15.60;69.10
57088;DHT22;42965;52.846;6.614;2023-05-16T13:29:34;15.60;72.70
57088;DHT22;42965;52.846;6.614;2023-05-16T13:32:00;16.00;72.60
57088;DHT22;42965;52.846;6.614;2023-05-16T13:34:26;16.70;69.50
57088;DHT22;42965;52.846;6.614;2023-05-16T13:36:52;17.00;66.90
57088;DHT22;42965;52.846;6.614;2023-05-16T13:39:18;17.00;65.40
57088;DHT22;42965;52.846;6.614;2023-05-16T13:41:45;17.00;65.20
57088;DHT22;42965;52.846;6.614;2023-05-16T13:44:13;16.50;64.50
57088;DHT22;42965;52.846;6.614;2023-05-16T13:46:39;16.00;65.50
57088;DHT22;42965;52.846;6.614;2023-05-16T13:49:05;15.90;67.90
57088;DHT22;42965;52.846;6.614;2023-05-16T13:51:31;15.70;69.40
57088;DHT22;42965;52.846;6.614;2023-05-16T13:53:59;16.10;70.50
57088;DHT22;42965;52.846;6.614;2023-05-16T13:56:25;17.00;70.40
57088;DHT22;42965;52.846;6.614;2023-05-16T13:58:51;16.70;65.20
57088;DHT22;42965;52.846;6.614;2023-05-16T14:01:18;16.30;64.20
57088;DHT22;42965;52.846;6.614;2023-05-16T14:03:44;16.10;65.70
57088;DHT22;42965;52.846;6.614;2023-05-16T14:06:10;15.90;67.90
57088;DHT22;42965;52.846;6.614;2023-05-16T14:08:36;15.40;69.10
57088;DHT22;42965;52.846;6.614;2023-05-16T14:11:02;15.30;70.00
57088;DHT22;42965;52.846;6.614;2023-05-16T14:13:29;15.10;70.70
57088;DHT22;42965;52.846;6.614;2023-05-16T14:15:55;14.90;72.80
57088;DHT22;42965;52.846;6.614;2023-05-16T14:18:22;14.80;76.70
57088;DHT22;42965;52.846;6.614;2023-05-16T14:20:49;15.10;77.80
57088;DHT22;42965;52.846;6.614;2023-05-16T14:23:19;15.50;76.70
57088;DHT22;42965;52.846;6.614;2023-05-16T14:25:45;15.70;73.80
57088;DHT22;42965;52.846;6.614;2023-05-16T14:28:11;15.60;71.30
57088;DHT22;42965;52.846;6.614;2023-05-16T14:30:37;15.50;72.20
57088;DHT22;42965;52.846;6.614;2023-05-16T14:33:04;15.30;76.30
57088;DHT22;42965;52.846;6.614;2023-05-16T14:35:31;15.30;78.90
57088;DHT22;42965;52.846;6.614;2023-05-16T14:37:58;15.40;87.40
57088;DHT22;42965;52.846;6.614;2023-05-16T14:40:24;15.30;96.60
57088;DHT22;42965;52.846;6.614;2023-05-16T14:42:50;15.20;99.90
57088;DHT22;42965;52.846;6.614;2023-05-16T14:45:17;14.70;99.90
57088;DHT22;42965;52.846;6.614;2023-05-16T14:47:43;14.40;99.90
57088;DHT22;42965;52.846;6.614;2023-05-16T14:50:09;14.40;99.90
57088;DHT22;42965;52.846;6.614;2023-05-16T14:52:38;14.30;99.90
57088;DHT22;42965;52.846;6.614;2023-05-16T14:55:05;14.10;99.90
57088;DHT22;42965;52.846;6.614;2023-05-16T14:57:32;14.00;99.90
57088;DHT22;42965;52.846;6.614;2023-05-16T14:59:58;14.10;99.90
57088;DHT22;42965;52.846;6.614;2023-05-16T15:02:24;14.00;99.90
57088;DHT22;42965;52.846;6.614;2023-05-16T15:04:51;14.10;99.90
57088;DHT22;42965;52.846;6.614;2023-05-16T15:07:19;14.00;99.90
57088;DHT22;42965;52.846;6.614;2023-05-16T15:09:46;13.90;99.90
57088;DHT22;42965;52.846;6.614;2023-05-16T15:12:12;14.00;99.90
57088;DHT22;42965;52.846;6.614;2023-05-16T15:14:38;14.00;99.90
57088;DHT22;42965;52.846;6.614;2023-05-16T15:17:04;14.20;99.90
57088;DHT22;42965;52.846;6.614;2023-05-16T15:19:31;14.30;99.90
57088;DHT22;42965;52.846;6.614;2023-05-16T15:21:57;14.40;99.90
57088;DHT22;42965;52.846;6.614;2023-05-16T15:24:23;14.10;99.90
57088;DHT22;42965;52.846;6.614;2023-05-16T15:26:50;14.30;99.90
57088;DHT22;42965;52.846;6.614;2023-05-16T15:29:16;14.20;99.90
57088;DHT22;42965;52.846;6.614;2023-05-16T15:31:47;14.20;99.90
57088;DHT22;42965;52.846;6.614;2023-05-16T15:34:13;14.20;99.90
57088;DHT22;42965;52.846;6.614;2023-05-16T15:36:40;14.20;99.90
57088;DHT22;42965;52.846;6.614;2023-05-16T15:39:06;14.10;99.90
57088;DHT22;42965;52.846;6.614;2023-05-16T15:41:32;14.10;99.90
57088;DHT22;42965;52.846;6.614;2023-05-16T15:43:58;14.10;99.90
57088;DHT22;42965;52.846;6.614;2023-05-16T15:46:25;14.00;99.90
57088;DHT22;42965;52.846;6.614;2023-05-16T15:48:52;13.80;99.90
57088;DHT22;42965;52.846;6.614;2023-05-16T15:51:18;13.80;99.90